createdAt,value
2019-02-16T00:01:06.150Z,99.34
2019-02-16T00:02:15.967Z,99.99
2019-02-16T00:03:26.315Z,99.53
2019-02-16T00:04:36.114Z,99.53
2019-02-16T00:05:45.923Z,99.99
2019-02-16T00:06:56.006Z,99.99
2019-02-16T00:08:08.330Z,99.53
2019-02-16T00:09:18.398Z,99.44
2019-02-16T00:10:28.459Z,99.34
2019-02-16T00:11:38.525Z,99.34
2019-02-16T00:12:48.355Z,99.44
2019-02-16T00:13:58.152Z,99.44
2019-02-16T00:15:10.182Z,99.53
2019-02-16T00:16:20.244Z,99.25
2019-02-16T00:17:30.299Z,99.34
2019-02-16T00:18:40.859Z,99.34
2019-02-16T00:19:50.959Z,99.34
2019-02-16T00:21:06.718Z,99.34
2019-02-16T00:22:17.015Z,99.34
2019-02-16T00:23:26.882Z,99.44
2019-02-16T00:24:36.710Z,99.48
2019-02-16T00:25:46.710Z,99.29
2019-02-16T00:26:56.494Z,99.39
2019-02-16T00:28:06.540Z,99.29
2019-02-16T00:29:16.722Z,99.44
2019-02-16T00:30:26.783Z,99.2
2019-02-16T00:31:36.861Z,99.25
2019-02-16T00:32:46.964Z,99.2
2019-02-16T00:33:58.738Z,99.44
2019-02-16T00:35:08.813Z,99.39
2019-02-16T00:36:18.889Z,99.29
2019-02-16T00:37:29.024Z,99.34
2019-02-16T00:38:39.806Z,99.1
2019-02-16T00:39:49.897Z,99.44
2019-02-16T00:40:59.957Z,99.34
2019-02-16T00:42:10.058Z,99.29
2019-02-16T00:43:20.208Z,99.29
2019-02-16T00:44:32.980Z,99.39
2019-02-16T00:45:43.521Z,98.91
2019-02-16T00:46:53.587Z,99.58
2019-02-16T00:48:03.650Z,99.29
2019-02-16T00:49:13.724Z,99.39
2019-02-16T00:50:23.898Z,99.29
2019-02-16T00:51:33.693Z,99.34
2019-02-16T00:52:43.775Z,99.48
2019-02-16T00:53:53.842Z,99.58
2019-02-16T00:55:03.907Z,99.48
2019-02-16T00:56:14.250Z,98.91
2019-02-16T00:57:24.323Z,99.58
2019-02-16T00:58:34.380Z,99.39
2019-02-16T00:59:44.685Z,99.48
2019-02-16T01:00:54.756Z,99.29
2019-02-16T01:02:04.819Z,99.29
2019-02-16T01:03:14.914Z,99.29
2019-02-16T01:04:25.005Z,99.29
2019-02-16T01:05:35.055Z,99.2
2019-02-16T01:06:45.111Z,99.48
2019-02-16T01:07:55.221Z,99.58
2019-02-16T01:09:06.342Z,99.01
2019-02-16T01:10:16.454Z,99.2
2019-02-16T01:11:26.317Z,99.29
2019-02-16T01:12:36.119Z,99.39
2019-02-16T01:13:46.180Z,99.58
2019-02-16T01:14:56.292Z,98.91
2019-02-16T01:16:08.610Z,99.48
2019-02-16T01:17:18.657Z,99.48
2019-02-16T01:18:28.980Z,99.48
2019-02-16T01:19:39.078Z,99.29
2019-02-16T01:20:49.133Z,99.39
2019-02-16T01:21:59.197Z,99.2
2019-02-16T01:23:09.262Z,99.29
2019-02-16T01:24:19.338Z,99.48
2019-02-16T01:25:29.450Z,99.48
2019-02-16T01:26:39.506Z,99.48
2019-02-16T01:27:49.811Z,99.39
2019-02-16T01:28:59.669Z,98.91
2019-02-16T01:30:09.735Z,98.91
2019-02-16T01:31:19.812Z,99.1
2019-02-16T01:32:29.931Z,98.91
2019-02-16T01:33:40.001Z,99.1
2019-02-16T01:34:50.997Z,99.1
2019-02-16T01:36:01.106Z,98.82
2019-02-16T01:37:11.177Z,99.1
2019-02-16T01:38:21.236Z,98.82
2019-02-16T01:39:31.283Z,98.87
2019-02-16T01:40:41.432Z,99.1
2019-02-16T01:41:51.511Z,99.1
2019-02-16T01:43:01.574Z,99.48
2019-02-16T01:44:11.635Z,99.39
2019-02-16T01:45:21.893Z,99.2
2019-02-16T01:46:31.955Z,99.29
2019-02-16T01:47:41.751Z,99.2
2019-02-16T01:48:51.901Z,99.39
2019-02-16T01:50:02.461Z,99.29
2019-02-16T01:51:12.263Z,99.29
2019-02-16T01:52:22.310Z,99.39
2019-02-16T01:53:32.402Z,99.39
2019-02-16T01:54:42.466Z,99.2
2019-02-16T01:55:52.549Z,99.39
2019-02-16T01:57:05.111Z,99.2
2019-02-16T01:58:15.183Z,99.2
2019-02-16T01:59:25.296Z,99.39
2019-02-16T02:00:35.129Z,99.1
2019-02-16T02:01:45.190Z,99.58
2019-02-16T02:02:55.252Z,99.29
2019-02-16T02:04:05.320Z,99.29
2019-02-16T02:05:15.370Z,99.29
2019-02-16T02:06:25.114Z,99.2
2019-02-16T02:07:35.187Z,99.2
2019-02-16T02:08:45.238Z,99.58
2019-02-16T02:09:55.290Z,99.1
2019-02-16T02:11:05.307Z,99.1
2019-02-16T02:12:15.394Z,99.2
2019-02-16T02:13:25.206Z,99.1
2019-02-16T02:14:35.257Z,99.2
2019-02-16T02:15:45.063Z,99.2
2019-02-16T02:16:55.128Z,99.29
2019-02-16T02:18:05.486Z,99.2
2019-02-16T02:19:15.541Z,99.29
2019-02-16T02:20:25.651Z,99.2
2019-02-16T02:21:43.596Z,99.2
2019-02-16T02:22:53.163Z,99.1
2019-02-16T02:24:03.245Z,99.48
2019-02-16T02:25:13.302Z,99.29
2019-02-16T02:26:23.100Z,98.91
2019-02-16T02:27:32.908Z,99.1
2019-02-16T02:28:42.959Z,98.82
2019-02-16T02:29:53.100Z,98.82
2019-02-16T02:31:05.092Z,99.01
2019-02-16T02:32:15.200Z,99.1
2019-02-16T02:33:25.535Z,99.01
2019-02-16T02:34:35.607Z,99.05
2019-02-16T02:35:45.679Z,99.1
2019-02-16T02:36:55.764Z,98.91
2019-02-16T02:38:07.864Z,99.1
2019-02-16T02:39:17.676Z,98.96
2019-02-16T02:40:27.478Z,99.05
2019-02-16T02:41:37.526Z,99.1
2019-02-16T02:42:47.322Z,98.86
2019-02-16T02:43:57.134Z,98.96
2019-02-16T02:45:07.197Z,99.15
2019-02-16T02:46:17.334Z,99.15
2019-02-16T02:47:27.440Z,99.24
2019-02-16T02:48:37.498Z,99.15
2019-02-16T02:49:47.149Z,99.05
2019-02-16T02:50:57.200Z,99.05
2019-02-16T02:52:07.075Z,99.15
2019-02-16T02:53:17.091Z,99.24
2019-02-16T02:54:36.292Z,99.24
2019-02-16T02:55:46.379Z,99.15
2019-02-16T02:56:56.464Z,99.05
2019-02-16T02:58:06.287Z,99.15
2019-02-16T02:59:16.347Z,99.24
2019-02-16T03:00:26.405Z,99.24
2019-02-16T03:01:36.469Z,98.86
2019-02-16T03:33:45.693Z,92.57
2019-02-16T03:34:55.806Z,93.13
2019-02-16T03:36:07.826Z,94.08
2019-02-16T03:37:17.912Z,94.84
2019-02-16T03:38:27.700Z,96.16
2019-02-16T03:39:38.084Z,96.54
2019-02-16T03:40:48.136Z,97.58
2019-02-16T03:41:58.172Z,97.67
2019-02-16T03:43:07.975Z,98.14
2019-02-16T03:44:18.264Z,98.71
2019-02-16T03:45:28.410Z,99
2019-02-16T03:46:38.497Z,99.24
2019-02-16T03:47:48.553Z,99.24
2019-02-16T03:48:59.038Z,99.33
2019-02-16T03:50:10.803Z,99.05
2019-02-16T03:51:20.659Z,99.15
2019-02-16T03:52:30.962Z,99.15
2019-02-16T03:53:41.252Z,99.24
2019-02-16T03:54:51.325Z,99.05
2019-02-16T03:56:02.333Z,99.19
2019-02-16T03:57:12.383Z,98.82
2019-02-16T03:58:22.862Z,99.19
2019-02-16T03:59:32.983Z,99.19
2019-02-16T04:00:43.166Z,99.1
2019-02-16T04:01:53.227Z,99.48
2019-02-16T04:03:05.399Z,99.19
2019-02-16T04:04:15.503Z,98.82
2019-02-16T04:05:25.559Z,98.82
2019-02-16T04:06:35.646Z,99.01
2019-02-16T04:07:45.747Z,99.01
2019-02-16T04:08:55.820Z,99.01
2019-02-16T04:10:06.086Z,99.01
2019-02-16T04:11:16.161Z,99.19
2019-02-16T04:12:26.025Z,99.01
2019-02-16T04:13:35.830Z,99.01
2019-02-16T04:14:45.381Z,99.29
2019-02-16T04:15:55.480Z,98.91
2019-02-16T04:17:06.509Z,98.91
2019-02-16T04:18:16.428Z,99.1
2019-02-16T04:19:26.250Z,99.29
2019-02-16T04:20:36.382Z,99.1
2019-02-16T04:21:46.454Z,99.1
2019-02-16T04:22:56.538Z,98.77
2019-02-16T04:24:06.621Z,99.33
2019-02-16T04:25:16.688Z,99.33
2019-02-16T04:26:26.749Z,99.33
2019-02-16T04:27:36.927Z,99.33
2019-02-16T04:28:46.988Z,99.05
2019-02-16T04:29:56.768Z,99.05
2019-02-16T04:31:06.583Z,98.96
2019-02-16T04:32:16.625Z,98.86
2019-02-16T04:33:26.705Z,98.86
2019-02-16T04:34:36.757Z,98.86
2019-02-16T04:35:46.565Z,98.96
2019-02-16T04:36:56.653Z,98.86
2019-02-16T04:38:06.715Z,98.96
2019-02-16T04:39:16.825Z,99.05
2019-02-16T04:40:26.372Z,99.24
2019-02-16T04:41:36.503Z,99.33
2019-02-16T04:42:46.575Z,99.05
2019-02-16T04:43:56.674Z,99.33
2019-02-16T04:45:06.481Z,99.15
2019-02-16T04:46:17.012Z,99.15
2019-02-16T04:47:26.819Z,98.68
2019-02-16T04:48:36.617Z,98.96
2019-02-16T04:49:46.738Z,99.33
2019-02-16T04:50:56.849Z,99.24
2019-02-16T04:52:06.932Z,98.96
2019-02-16T04:53:16.719Z,99.15
2019-02-16T04:54:26.522Z,99.24
2019-02-16T04:55:36.358Z,99.24
2019-02-16T04:56:46.422Z,99.33
2019-02-16T04:57:56.212Z,99.33
2019-02-16T04:59:06.093Z,99.33
2019-02-16T05:00:16.179Z,99.15
2019-02-16T05:01:26.331Z,99.33
2019-02-16T05:02:36.606Z,99.24
2019-02-16T05:03:46.766Z,99.43
2019-02-16T05:04:56.551Z,98.96
2019-02-16T05:06:06.626Z,98.96
2019-02-16T05:07:16.523Z,99.05
2019-02-16T05:08:26.598Z,99.24
2019-02-16T05:09:36.637Z,99.33
2019-02-16T05:10:47.073Z,99.33
2019-02-16T05:11:57.164Z,99.33
2019-02-16T05:13:07.054Z,99.15
2019-02-16T05:14:17.133Z,99.05
2019-02-16T05:15:27.221Z,99.15
2019-02-16T05:16:37.020Z,99.05
2019-02-16T05:17:47.185Z,99.24
2019-02-16T05:18:57.331Z,99.24
2019-02-16T05:20:07.390Z,99.24
2019-02-16T05:21:17.444Z,99.24
2019-02-16T05:22:27.246Z,99.05
2019-02-16T05:23:47.166Z,99.15
2019-02-16T05:24:56.999Z,98.96
2019-02-16T05:26:07.342Z,99.05
2019-02-16T05:27:17.175Z,98.96
2019-02-16T05:28:27.245Z,98.96
2019-02-16T05:29:37.337Z,99.15
2019-02-16T05:30:47.168Z,99.24
2019-02-16T05:31:57.037Z,99.52
2019-02-16T05:33:07.102Z,99.05
2019-02-16T05:34:16.900Z,99.15
2019-02-16T05:35:26.716Z,99.24
2019-02-16T05:36:36.706Z,99.33
2019-02-16T05:37:46.832Z,99.05
2019-02-16T05:38:56.913Z,99.24
2019-02-16T05:40:06.964Z,99.05
2019-02-16T05:41:16.772Z,99.24
2019-02-16T05:42:26.844Z,99.15
2019-02-16T05:43:36.916Z,99.15
2019-02-16T05:44:46.714Z,99.24
2019-02-16T05:45:57.004Z,99.05
2019-02-16T05:47:07.168Z,99.33
2019-02-16T05:48:17.241Z,99.43
2019-02-16T05:49:27.548Z,98.96
2019-02-16T05:50:37.338Z,98.86
2019-02-16T05:51:47.138Z,98.96
2019-02-16T05:52:57.006Z,98.86
2019-02-16T05:54:06.885Z,98.96
2019-02-16T05:55:16.931Z,99.15
2019-02-16T05:56:26.753Z,98.96
2019-02-16T05:57:36.811Z,99.05
2019-02-16T05:58:47.140Z,99.33
2019-02-16T05:59:57.216Z,99.05
2019-02-16T06:01:07.373Z,99.33
2019-02-16T06:02:17.424Z,99.15
2019-02-16T06:03:27.442Z,99.15
2019-02-16T06:04:37.603Z,99.05
2019-02-16T06:05:47.766Z,99.15
2019-02-16T06:06:57.820Z,98.96
2019-02-16T06:08:10.331Z,99.24
2019-02-16T06:09:20.451Z,99.33
2019-02-16T06:10:30.087Z,98.86
2019-02-16T06:11:40.470Z,98.77
2019-02-16T06:12:50.325Z,98.68
2019-02-16T06:14:00.140Z,98.68
2019-02-16T06:15:10.210Z,98.77
2019-02-16T06:16:20.266Z,98.58
2019-02-16T06:17:30.063Z,98.86
2019-02-16T06:18:39.856Z,98.68
2019-02-16T06:19:49.922Z,98.68
2019-02-16T06:21:01.848Z,98.68
2019-02-16T06:22:12.810Z,98.77
2019-02-16T06:23:22.873Z,98.91
2019-02-16T06:24:32.686Z,98.63
2019-02-16T06:25:42.981Z,98.77
2019-02-16T06:26:53.046Z,98.72
2019-02-16T06:28:05.873Z,98.54
2019-02-16T06:29:15.930Z,98.16
2019-02-16T06:30:25.994Z,98.25
2019-02-16T06:31:36.101Z,98.16
2019-02-16T06:32:46.171Z,98.44
2019-02-16T06:33:56.003Z,98.44
2019-02-16T06:35:06.879Z,98.16
2019-02-16T06:36:16.941Z,98.44
2019-02-16T06:37:26.770Z,98.35
2019-02-16T06:38:37.014Z,98.25
2019-02-16T06:39:47.092Z,98.25
2019-02-16T06:40:57.267Z,98.44
2019-02-16T06:42:07.350Z,98.44
2019-02-16T06:43:17.699Z,98.44
2019-02-16T06:44:27.784Z,98.35
2019-02-16T06:45:37.845Z,98.35
2019-02-16T06:46:47.683Z,98.25
2019-02-16T06:47:57.766Z,98.35
2019-02-16T06:49:07.783Z,98.16
2019-02-16T06:50:18.481Z,98.16
2019-02-16T06:51:28.542Z,98.44
2019-02-16T06:52:38.612Z,98.49
2019-02-16T06:53:48.410Z,98.3
2019-02-16T06:54:57.990Z,98.39
2019-02-16T06:56:08.282Z,98.3
2019-02-16T06:57:18.342Z,98.49
2019-02-16T06:58:28.399Z,98.58
2019-02-16T06:59:38.721Z,98.77
2019-02-16T07:00:48.774Z,98.39
2019-02-16T07:01:58.835Z,98.49
2019-02-16T07:03:08.949Z,98.49
2019-02-16T07:04:19.001Z,98.11
2019-02-16T07:05:29.067Z,98.68
2019-02-16T07:06:39.282Z,98.58
2019-02-16T07:07:49.732Z,98.49
2019-02-16T07:08:59.834Z,98.68
2019-02-16T07:10:10.933Z,98.35
2019-02-16T07:11:21.015Z,98.35
2019-02-16T07:12:31.030Z,97.88
2019-02-16T07:13:41.092Z,98.35
2019-02-16T07:14:51.494Z,97.78
2019-02-16T07:16:01.773Z,98.92
2019-02-16T07:17:12.111Z,98.63
2019-02-16T07:18:22.282Z,98.35
2019-02-16T07:19:32.066Z,98.35
2019-02-16T07:20:41.982Z,98.07
2019-02-16T07:21:51.794Z,98.21
2019-02-16T07:23:01.907Z,98.11
2019-02-16T07:24:11.723Z,98.21
2019-02-16T07:25:22.026Z,98.11
2019-02-16T07:26:31.818Z,98.02
2019-02-16T07:27:41.877Z,98.4
2019-02-16T07:28:52.166Z,98.11
2019-02-16T07:30:02.275Z,98.4
2019-02-16T07:31:12.341Z,98.16
2019-02-16T07:32:23.431Z,97.97
2019-02-16T07:33:33.501Z,98.07
2019-02-16T07:34:43.825Z,98.07
2019-02-16T07:35:53.918Z,97.97
2019-02-16T07:37:04.034Z,97.78
2019-02-16T07:38:14.111Z,97.97
2019-02-16T07:39:24.357Z,97.5
2019-02-16T07:40:34.454Z,97.5
2019-02-16T07:41:44.545Z,97.92
2019-02-16T07:42:54.923Z,97.27
2019-02-16T07:44:06.645Z,97.83
2019-02-16T07:45:17.569Z,97.83
2019-02-16T07:46:29.046Z,98.02
2019-02-16T07:47:40.182Z,97.88
2019-02-16T07:48:51.237Z,98.07
2019-02-16T07:50:04.098Z,97.88
2019-02-16T07:51:15.446Z,97.88
2019-02-16T07:52:26.679Z,97.88
2019-02-16T07:53:37.733Z,97.74
2019-02-16T07:54:48.638Z,97.78
2019-02-16T07:55:59.404Z,97.93
2019-02-16T07:57:13.667Z,97.74
2019-02-16T07:58:28.792Z,97.74
2019-02-16T07:59:39.472Z,97.93
2019-02-16T08:00:49.813Z,98.12
2019-02-16T08:01:59.926Z,98.03
2019-02-16T08:03:10.919Z,97.93
2019-02-16T08:04:20.788Z,98.08
2019-02-16T08:05:30.918Z,97.98
2019-02-16T08:06:41.057Z,97.79
2019-02-16T08:07:51.374Z,98.17
2019-02-16T08:09:03.591Z,97.69
2019-02-16T08:10:13.800Z,97.98
2019-02-16T08:11:23.877Z,97.69
2019-02-16T08:12:35.026Z,97.98
2019-02-16T08:13:45.191Z,98.17
2019-02-16T08:14:55.000Z,98.13
2019-02-16T08:16:05.076Z,98.32
2019-02-16T08:17:14.900Z,98.22
2019-02-16T08:18:24.688Z,98.69
2019-02-16T08:19:34.493Z,98.41
2019-02-16T08:20:44.543Z,98.5
2019-02-16T08:21:54.641Z,98.32
2019-02-16T08:23:04.713Z,98.74
2019-02-16T08:24:14.523Z,98.5
2019-02-16T08:25:24.604Z,98.27
2019-02-16T08:26:34.399Z,98.55
2019-02-16T08:27:44.461Z,99.03
2019-02-16T08:28:54.541Z,98.74
2019-02-16T08:30:04.610Z,98.98
2019-02-16T08:31:14.400Z,99.13
2019-02-16T08:32:24.206Z,99.32
2019-02-16T08:33:34.269Z,98.84
2019-02-16T08:34:43.857Z,98.65
2019-02-16T08:35:53.916Z,98.74
2019-02-16T08:37:03.789Z,98.94
2019-02-16T08:38:13.599Z,99.32
2019-02-16T08:39:23.653Z,98.7
2019-02-16T08:40:33.744Z,98.6
2019-02-16T08:41:43.833Z,98.32
2019-02-16T08:42:53.903Z,98.32
2019-02-16T08:44:05.271Z,98.22
2019-02-16T08:45:15.332Z,98.22
2019-02-16T08:46:25.129Z,98.32
2019-02-16T08:47:35.253Z,98.08
2019-02-16T08:48:45.115Z,98.18
2019-02-16T08:49:55.165Z,98.36
2019-02-16T08:51:05.224Z,98.36
2019-02-16T08:52:15.345Z,97.99
2019-02-16T08:53:25.421Z,97.89
2019-02-16T08:54:35.487Z,98.46
2019-02-16T08:55:47.028Z,98.56
2019-02-16T08:56:56.891Z,98.94
2019-02-16T08:58:08.857Z,98.94
2019-02-16T08:59:18.879Z,98.75
2019-02-16T09:00:28.954Z,98.6
2019-02-16T09:01:39.019Z,99.41
2019-02-16T09:02:48.871Z,99.22
2019-02-16T09:03:58.943Z,99.51
2019-02-16T09:05:09.112Z,98.94
2019-02-16T09:06:19.504Z,98.94
2019-02-16T09:07:30.071Z,98.56
2019-02-16T09:08:40.144Z,98.32
2019-02-16T09:09:50.216Z,98.32
2019-02-16T09:11:00.344Z,98.32
2019-02-16T09:12:10.442Z,98.22
2019-02-16T09:13:20.274Z,98.22
2019-02-16T09:14:30.650Z,98.32
2019-02-16T09:15:40.747Z,98.51
2019-02-16T09:16:50.825Z,98.37
2019-02-16T09:18:00.897Z,98.56
2019-02-16T09:19:10.970Z,98.37
2019-02-16T09:20:21.241Z,97.89
2019-02-16T09:21:31.092Z,98.27
2019-02-16T09:22:41.222Z,98.37
2019-02-16T09:23:58.801Z,98.52
2019-02-16T09:25:09.315Z,98.03
2019-02-16T09:26:19.142Z,98.66
2019-02-16T09:27:29.279Z,98.47
2019-02-16T09:28:39.411Z,99.23
2019-02-16T09:29:49.232Z,99.42
2019-02-16T09:30:59.457Z,99.18
2019-02-16T09:32:09.736Z,99.08
2019-02-16T09:33:21.221Z,99.08
2019-02-16T09:34:30.790Z,99.08
2019-02-16T09:35:40.848Z,99.08
2019-02-16T09:36:51.152Z,99.08
2019-02-16T09:38:01.830Z,98.52
2019-02-16T09:39:11.929Z,98.94
2019-02-16T09:40:21.829Z,98.85
2019-02-16T09:41:31.928Z,98.66
2019-02-16T09:42:42.009Z,98.75
2019-02-16T09:43:52.074Z,99.04
2019-02-16T09:45:01.904Z,99.04
2019-02-16T09:46:11.994Z,99.52
2019-02-16T09:47:22.073Z,99.33
2019-02-16T09:48:32.362Z,99.04
2019-02-16T09:49:43.140Z,99.04
2019-02-16T09:50:53.263Z,99.14
2019-02-16T09:52:04.110Z,99.33
2019-02-16T09:53:14.197Z,98.94
2019-02-16T09:54:24.270Z,99.43
2019-02-16T09:55:34.615Z,99.52
2019-02-16T09:56:44.942Z,99.33
2019-02-16T09:57:55.027Z,99.71
2019-02-16T09:59:05.661Z,99.23
2019-02-16T10:00:16.511Z,99.23
2019-02-16T10:01:26.622Z,99.04
2019-02-16T10:02:36.945Z,99.14
2019-02-16T10:03:47.015Z,99.52
2019-02-16T10:04:57.101Z,99.99
2019-02-16T10:06:06.955Z,99.99
2019-02-16T10:07:17.199Z,99.99
2019-02-16T10:08:27.287Z,99.99
2019-02-16T10:09:37.389Z,99.9
2019-02-16T10:10:47.668Z,99.99
2019-02-16T10:11:57.749Z,99.71
2019-02-16T10:13:07.819Z,99.8
2019-02-16T10:14:17.923Z,99.99
2019-02-16T10:15:28.414Z,99.99
2019-02-16T10:16:38.498Z,99.99
2019-02-16T10:17:48.574Z,99.99
2019-02-16T10:18:59.299Z,99.8
2019-02-16T10:20:09.124Z,99.43
2019-02-16T10:21:18.995Z,99.14
2019-02-16T10:22:29.070Z,99.62
2019-02-16T10:23:39.152Z,99.14
2019-02-16T10:24:49.458Z,99.23
2019-02-16T10:25:59.288Z,99.62
2019-02-16T10:27:09.370Z,99.62
2019-02-16T10:28:19.466Z,99.33
2019-02-16T10:29:29.543Z,99.66
2019-02-16T10:30:39.874Z,99.09
2019-02-16T10:31:49.707Z,99.09
2019-02-16T10:33:00.037Z,99.28
2019-02-16T10:34:10.908Z,99.24
2019-02-16T10:35:20.995Z,99.38
2019-02-16T10:36:31.819Z,99.24
2019-02-16T10:37:42.016Z,99.33
2019-02-16T10:38:51.857Z,99.24
2019-02-16T10:40:02.033Z,99.43
2019-02-16T10:41:12.170Z,99.43
2019-02-16T10:42:22.281Z,99.43
2019-02-16T10:43:32.358Z,99.04
2019-02-16T10:44:42.836Z,99.24
2019-02-16T10:45:53.150Z,99.33
2019-02-16T10:47:04.892Z,99.14
2019-02-16T10:48:14.984Z,99.14
2019-02-16T10:49:24.792Z,99.62
2019-02-16T10:50:34.841Z,99.9
2019-02-16T10:51:44.669Z,99.62
2019-02-16T10:52:54.957Z,99.71
2019-02-16T10:54:05.017Z,99.29
2019-02-16T10:55:15.101Z,99.1
2019-02-16T10:56:25.307Z,99.1
2019-02-16T10:57:35.133Z,99.57
2019-02-16T10:58:45.211Z,98.9
2019-02-16T10:59:55.021Z,99.57
2019-02-16T11:01:04.884Z,99.1
2019-02-16T11:02:14.769Z,98.81
2019-02-16T11:03:25.544Z,99.05
2019-02-16T11:04:40.734Z,99.24
2019-02-16T11:05:50.808Z,98.66
2019-02-16T11:07:02.707Z,98.95
2019-02-16T11:08:13.004Z,98.95
2019-02-16T11:09:23.126Z,99.24
2019-02-16T11:10:33.209Z,98.86
2019-02-16T11:11:45.406Z,99.15
2019-02-16T11:12:55.328Z,99.05
2019-02-16T11:14:05.434Z,98.91
2019-02-16T11:15:14.996Z,98.71
2019-02-16T11:16:25.055Z,98.81
2019-02-16T11:17:34.923Z,98.91
2019-02-16T11:18:45.237Z,99
2019-02-16T11:19:55.608Z,99.05
2019-02-16T11:21:06.095Z,98.86
2019-02-16T11:22:16.376Z,99.05
2019-02-16T11:23:26.727Z,98.76
2019-02-16T11:24:39.000Z,99.05
2019-02-16T11:25:49.104Z,98.86
2019-02-16T11:26:59.276Z,98.86
2019-02-16T11:28:09.367Z,98.67
2019-02-16T11:29:19.443Z,98.72
2019-02-16T11:30:29.524Z,98.72
2019-02-16T11:31:39.597Z,99.01
2019-02-16T11:32:49.901Z,99.01
2019-02-16T11:34:00.019Z,99.01
2019-02-16T11:35:12.770Z,98.91
2019-02-16T11:36:22.850Z,98.81
2019-02-16T11:37:32.731Z,99.19
2019-02-16T11:38:42.808Z,98.91
2019-02-16T11:39:52.907Z,99.1
2019-02-16T11:41:02.823Z,99.01
2019-02-16T11:42:21.749Z,99.01
2019-02-16T11:43:31.836Z,98.81
2019-02-16T11:44:43.999Z,99.01
2019-02-16T11:45:54.377Z,98.81
2019-02-16T11:47:04.476Z,99.05
2019-02-16T11:48:14.549Z,98.77
2019-02-16T11:49:24.384Z,99.05
2019-02-16T11:50:34.475Z,99.15
2019-02-16T11:51:44.562Z,99.34
2019-02-16T11:52:54.727Z,99.44
2019-02-16T11:54:04.808Z,99.05
2019-02-16T11:55:15.233Z,98.96
2019-02-16T11:56:25.296Z,98.91
2019-02-16T11:57:35.401Z,98.77
2019-02-16T11:58:46.000Z,98.62
2019-02-16T11:59:56.087Z,99.01
2019-02-16T12:01:06.399Z,98.82
2019-02-16T12:02:16.519Z,98.82
2019-02-16T12:03:26.603Z,99.29
2019-02-16T12:04:37.083Z,98.91
2019-02-16T12:05:47.238Z,99.01
2019-02-16T12:06:57.581Z,99.01
2019-02-16T12:08:08.448Z,99.2
2019-02-16T12:09:18.967Z,98.72
2019-02-16T12:10:29.052Z,99.2
2019-02-16T12:11:39.323Z,98.96
2019-02-16T12:12:49.457Z,99.2
2019-02-16T12:13:59.542Z,99.29
2019-02-16T12:15:09.346Z,99.29
2019-02-16T12:16:19.171Z,99.68
2019-02-16T12:17:29.285Z,99.77
2019-02-16T12:18:39.392Z,99.58
2019-02-16T12:19:49.474Z,99.77
2019-02-16T12:20:59.555Z,99.58
2019-02-16T12:22:10.122Z,99.58
2019-02-16T12:23:20.222Z,99.87
2019-02-16T12:24:30.394Z,99.39
2019-02-16T12:25:40.445Z,99.58
2019-02-16T12:26:50.728Z,99.49
2019-02-16T12:28:02.211Z,99.68
2019-02-16T12:29:12.303Z,99.49
2019-02-16T12:30:22.439Z,99.29
2019-02-16T12:31:32.548Z,99.63
2019-02-16T12:32:42.640Z,99.68
2019-02-16T12:33:52.716Z,99.58
2019-02-16T12:35:02.991Z,99.96
2019-02-16T12:36:12.823Z,99.99
2019-02-16T12:37:24.898Z,99.49
2019-02-16T12:38:34.475Z,99.49
2019-02-16T12:39:44.611Z,99.68
2019-02-16T12:40:54.697Z,99.99
2019-02-16T12:42:04.790Z,99.99
2019-02-16T12:43:14.881Z,99.39
2019-02-16T12:44:25.309Z,99.96
2019-02-16T12:45:35.499Z,99.87
2019-02-16T12:46:54.117Z,99.91
2019-02-16T12:48:06.438Z,99.99
2019-02-16T12:49:17.219Z,99.99
2019-02-16T12:50:27.340Z,99.99
2019-02-16T12:51:37.407Z,99.99
2019-02-16T12:52:47.943Z,99.91
2019-02-16T12:53:58.059Z,99.91
2019-02-16T12:55:16.782Z,99.87
2019-02-16T12:56:26.833Z,99.87
2019-02-16T12:57:37.164Z,99.39
2019-02-16T12:58:47.262Z,99.49
2019-02-16T12:59:56.828Z,99.99
2019-02-16T13:01:07.018Z,99.73
2019-02-16T13:02:17.148Z,99.58
2019-02-16T13:03:27.934Z,99.68
2019-02-16T13:04:38.038Z,99.73
2019-02-16T13:05:47.708Z,99.73
2019-02-16T13:06:57.770Z,99.73
2019-02-16T13:08:10.941Z,99.99
2019-02-16T13:09:21.486Z,99.82
2019-02-16T13:10:31.599Z,99.99
2019-02-16T13:11:41.776Z,99.91
2019-02-16T13:12:52.011Z,99.87
2019-02-16T13:14:01.863Z,99.99
2019-02-16T13:15:11.974Z,99.99
2019-02-16T13:16:22.072Z,99.99
2019-02-16T13:17:31.912Z,99.99
2019-02-16T13:18:42.271Z,99.99
2019-02-16T13:19:51.942Z,99.99
2019-02-16T13:21:01.772Z,99.99
2019-02-16T13:22:12.059Z,99.99
2019-02-16T13:23:22.144Z,99.99
2019-02-16T13:24:32.215Z,99.99
2019-02-16T13:25:42.292Z,99.99
2019-02-16T13:26:52.384Z,99.99
2019-02-16T13:28:03.302Z,99.99
2019-02-16T13:29:13.500Z,99.99
2019-02-16T13:30:23.594Z,99.99
2019-02-16T13:31:33.931Z,99.99
2019-02-16T13:32:44.083Z,99.99
2019-02-16T13:33:53.915Z,99.99
2019-02-16T13:35:05.204Z,99.99
2019-02-16T13:36:15.542Z,99.99
2019-02-16T13:37:25.615Z,99.99
2019-02-16T13:38:35.691Z,99.99
2019-02-16T13:39:46.008Z,99.99
2019-02-16T13:40:56.354Z,99.99
2019-02-16T13:42:08.471Z,99.99
2019-02-16T13:43:18.770Z,99.99
2019-02-16T13:44:29.888Z,99.99
2019-02-16T13:45:39.995Z,99.91
2019-02-16T13:46:49.833Z,99.99
2019-02-16T13:47:59.917Z,99.99
2019-02-16T13:49:09.758Z,99.99
2019-02-16T13:50:20.472Z,99.63
2019-02-16T13:51:30.665Z,99.91
2019-02-16T13:52:40.994Z,99.82
2019-02-16T13:53:51.070Z,99.91
2019-02-16T13:55:01.469Z,99.82
2019-02-16T13:56:14.702Z,99.99
2019-02-16T13:57:24.566Z,99.99
2019-02-16T13:58:34.408Z,99.99
2019-02-16T13:59:44.298Z,99.99
2019-02-16T14:00:54.481Z,99.99
2019-02-16T14:02:04.805Z,99.99
2019-02-16T14:03:16.040Z,99.99
2019-02-16T14:04:26.384Z,99.99
2019-02-16T14:05:36.985Z,99.99
2019-02-16T14:06:47.294Z,99.99
2019-02-16T14:07:57.471Z,99.99
2019-02-16T14:09:09.004Z,99.99
2019-02-16T14:10:19.290Z,99.99
2019-02-16T14:11:29.734Z,99.99
2019-02-16T14:12:40.096Z,99.99
2019-02-16T14:13:50.171Z,99.99
2019-02-16T14:15:01.517Z,99.99
2019-02-16T14:16:11.356Z,99.99
2019-02-16T14:17:21.538Z,99.99
2019-02-16T14:18:31.814Z,99.99
2019-02-16T14:19:41.898Z,99.99
2019-02-16T14:20:51.989Z,99.99
2019-02-16T14:22:02.789Z,99.99
2019-02-16T14:23:12.822Z,99.99
2019-02-16T14:24:23.340Z,99.99
2019-02-16T14:25:42.211Z,99.99
2019-02-16T14:26:53.558Z,99.99
2019-02-16T14:28:05.910Z,99.99
2019-02-16T14:29:16.183Z,99.99
2019-02-16T14:30:26.533Z,99.99
2019-02-16T14:31:36.618Z,99.99
2019-02-16T14:32:46.722Z,99.99
2019-02-16T14:33:57.274Z,99.99
2019-02-16T14:35:07.407Z,99.99
2019-02-16T14:36:17.530Z,99.99
2019-02-16T14:37:28.256Z,99.99
2019-02-16T14:38:38.380Z,99.99
2019-02-16T14:39:48.568Z,99.99
2019-02-16T14:40:58.752Z,99.99
2019-02-16T14:42:08.917Z,99.99
2019-02-16T14:43:19.028Z,99.99
2019-02-16T14:44:29.313Z,99.99
2019-02-16T14:45:39.464Z,99.99
2019-02-16T14:46:49.562Z,99.99
2019-02-16T14:47:59.709Z,99.99
2019-02-16T14:49:10.008Z,99.99
2019-02-16T14:50:20.134Z,99.99
2019-02-16T14:51:30.309Z,99.99
2019-02-16T14:52:40.151Z,99.99
2019-02-16T14:53:50.256Z,99.99
2019-02-16T14:55:00.449Z,99.99
2019-02-16T14:56:10.745Z,99.99
2019-02-16T14:57:20.877Z,99.99
2019-02-16T14:58:31.005Z,99.99
2019-02-16T14:59:41.688Z,99.99
2019-02-16T15:00:51.810Z,99.99
2019-02-16T15:02:02.859Z,99.99
2019-02-16T15:03:12.956Z,99.99
2019-02-16T15:04:23.266Z,99.99
2019-02-16T15:05:32.784Z,99.99
2019-02-16T15:06:42.619Z,99.99
2019-02-16T15:07:52.715Z,99.99
2019-02-16T15:09:03.349Z,99.99
2019-02-16T15:10:13.172Z,99.99
2019-02-16T15:11:23.261Z,99.99
2019-02-16T15:12:33.456Z,99.99
2019-02-16T15:13:44.978Z,99.99
2019-02-16T15:14:55.209Z,99.99
2019-02-16T15:16:05.414Z,99.99
2019-02-16T15:17:15.503Z,99.99
2019-02-16T15:18:25.596Z,99.99
2019-02-16T15:19:35.714Z,99.99
2019-02-16T15:20:45.545Z,99.99
2019-02-16T15:21:55.638Z,99.99
2019-02-16T15:23:05.997Z,99.99
2019-02-16T15:24:16.203Z,99.99
2019-02-16T15:25:26.144Z,99.99
2019-02-16T15:26:36.248Z,99.99
2019-02-16T15:27:46.378Z,99.99
2019-02-16T15:28:56.504Z,99.99
2019-02-16T15:30:06.363Z,99.99
2019-02-16T15:31:17.486Z,99.99
2019-02-16T15:32:27.566Z,99.99
2019-02-16T15:33:37.457Z,99.99
2019-02-16T15:34:47.312Z,99.99
2019-02-16T15:35:57.411Z,99.99
2019-02-16T15:37:07.507Z,99.99
2019-02-16T15:38:17.628Z,99.99
2019-02-16T15:39:28.035Z,99.99